createdAt,value
2018-08-18T00:00:22.703Z,19.10
2018-08-18T00:02:51.153Z,19.12
2018-08-18T00:05:19.804Z,19.12
2018-08-18T00:07:48.464Z,19.09
2018-08-18T00:10:24.355Z,19.11
2018-08-18T00:12:53.007Z,19.08
2018-08-18T00:15:21.577Z,19.06
2018-08-18T00:17:50.006Z,19.04
2018-08-18T00:20:21.199Z,19.00
2018-08-18T00:22:49.601Z,18.89
2018-08-18T00:25:18.185Z,18.85
2018-08-18T00:27:46.684Z,18.87
2018-08-18T00:30:20.429Z,18.93
2018-08-18T00:32:48.865Z,18.98
2018-08-18T00:35:17.402Z,18.98
2018-08-18T00:37:45.837Z,19.02
2018-08-18T00:40:14.378Z,19.07
2018-08-18T00:42:42.873Z,19.11
2018-08-18T00:45:12.914Z,19.17
2018-08-18T00:47:41.397Z,19.14
2018-08-18T00:50:10.847Z,19.16
2018-08-18T00:52:39.665Z,19.17
2018-08-18T00:55:08.116Z,19.14
2018-08-18T00:57:36.549Z,19.14
2018-08-18T01:00:06.789Z,19.14
2018-08-18T01:02:35.654Z,19.12
2018-08-18T01:05:05.045Z,19.13
2018-08-18T01:07:33.603Z,19.14
2018-08-18T01:10:02.562Z,19.10
2018-08-18T01:12:31.248Z,19.11
2018-08-18T01:14:59.529Z,19.11
2018-08-18T01:17:28.005Z,19.17
2018-08-18T01:19:57.676Z,19.19
2018-08-18T01:22:26.530Z,19.25
2018-08-18T01:24:54.973Z,19.31
2018-08-18T01:27:24.128Z,19.35
2018-08-18T01:30:00.743Z,19.36
2018-08-18T01:32:31.186Z,19.29
2018-08-18T01:34:59.649Z,19.33
2018-08-18T01:37:28.247Z,19.37
2018-08-18T01:39:56.691Z,19.39
2018-08-18T01:42:25.536Z,19.39
2018-08-18T01:44:55.289Z,19.42
2018-08-18T01:47:24.028Z,19.37
2018-08-18T01:49:52.547Z,19.36
2018-08-18T01:52:22.824Z,19.30
2018-08-18T01:54:51.305Z,19.30
2018-08-18T01:57:20.789Z,19.29
2018-08-18T01:59:49.557Z,19.26
2018-08-18T02:02:22.962Z,19.23
2018-08-18T02:04:52.041Z,19.13
2018-08-18T02:07:26.919Z,19.11
2018-08-18T02:09:55.737Z,19.12
2018-08-18T02:12:24.771Z,19.12
2018-08-18T02:14:53.606Z,19.12
2018-08-18T02:17:32.813Z,19.08
2018-08-18T02:20:01.290Z,19.07
2018-08-18T02:22:30.605Z,19.05
2018-08-18T02:24:59.154Z,19.06
2018-08-18T02:27:27.742Z,19.07
2018-08-18T02:30:07.449Z,19.12
2018-08-18T02:32:37.979Z,19.12
2018-08-18T02:35:07.177Z,19.06
2018-08-18T02:37:35.741Z,19.01
2018-08-18T02:40:06.184Z,18.91
2018-08-18T02:42:34.693Z,18.87
2018-08-18T02:45:03.189Z,18.81
2018-08-18T02:47:31.657Z,18.76
2018-08-18T02:50:01.456Z,18.68
2018-08-18T02:52:33.905Z,18.62
2018-08-18T02:55:04.524Z,18.56
2018-08-18T02:57:35.254Z,18.52
2018-08-18T03:00:05.313Z,18.47
2018-08-18T03:02:34.081Z,18.41
2018-08-18T03:05:02.549Z,18.42
2018-08-18T03:07:32.277Z,18.45
2018-08-18T03:10:01.747Z,18.44
2018-08-18T03:12:34.305Z,18.49
2018-08-18T03:15:02.726Z,18.52
2018-08-18T03:17:31.300Z,18.60
2018-08-18T03:19:59.737Z,18.61
2018-08-18T03:22:33.692Z,18.61
2018-08-18T03:25:02.121Z,18.61
2018-08-18T03:27:30.623Z,18.63
2018-08-18T03:29:59.057Z,18.66
2018-08-18T03:32:27.774Z,18.67
2018-08-18T03:34:56.299Z,18.67
2018-08-18T03:37:31.803Z,18.65
2018-08-18T03:40:00.317Z,18.65
2018-08-18T03:42:35.713Z,18.61
2018-08-18T03:45:06.770Z,18.64
2018-08-18T03:47:35.249Z,18.60
2018-08-18T03:50:04.241Z,18.58
2018-08-18T03:52:32.744Z,18.57
2018-08-18T03:55:01.205Z,18.55
2018-08-18T03:57:45.538Z,18.53
2018-08-18T04:00:15.147Z,18.48
2018-08-18T04:02:43.681Z,18.42
2018-08-18T04:05:12.133Z,18.35
2018-08-18T04:07:45.905Z,18.31
2018-08-18T04:10:14.425Z,18.27
2018-08-18T04:12:42.870Z,18.26
2018-08-18T04:15:11.462Z,18.22
2018-08-18T04:17:39.968Z,18.23
2018-08-18T04:22:51.764Z,18.31
2018-08-18T04:25:20.336Z,18.33
2018-08-18T04:27:49.412Z,18.36
2018-08-18T04:30:20.993Z,18.44
2018-08-18T04:32:57.849Z,18.46
2018-08-18T04:35:28.015Z,18.47
2018-08-18T04:37:57.393Z,18.49
2018-08-18T04:40:26.641Z,18.58
2018-08-18T04:42:58.434Z,18.63
2018-08-18T04:45:27.085Z,18.58
2018-08-18T04:47:55.525Z,18.58
2018-08-18T04:50:24.219Z,18.59
2018-08-18T04:52:53.901Z,18.60
2018-08-18T04:55:22.627Z,18.63
2018-08-18T04:57:51.265Z,18.64
2018-08-18T05:00:19.717Z,18.68
2018-08-18T05:02:58.022Z,18.72
2018-08-18T05:05:28.030Z,18.78
2018-08-18T05:07:58.626Z,18.81
2018-08-18T05:10:27.735Z,18.84
2018-08-18T05:12:56.189Z,18.89
2018-08-18T05:15:25.291Z,18.95
2018-08-18T05:17:53.818Z,18.97
2018-08-18T05:20:24.824Z,19.03
2018-08-18T05:22:53.346Z,19.10
2018-08-18T05:25:29.709Z,19.14
2018-08-18T05:27:58.686Z,19.27
2018-08-18T05:30:27.144Z,19.35
2018-08-18T05:32:55.804Z,19.43
2018-08-18T05:35:25.410Z,19.54
2018-08-18T05:37:53.837Z,19.60
2018-08-18T05:40:22.333Z,19.72
2018-08-18T05:42:50.802Z,19.80
2018-08-18T05:45:26.518Z,19.84
2018-08-18T05:47:55.329Z,19.88
2018-08-18T05:50:27.565Z,20.01
2018-08-18T05:53:04.237Z,20.06
2018-08-18T05:55:32.705Z,20.17
2018-08-18T05:58:01.150Z,20.23
2018-08-18T06:00:29.680Z,20.34
2018-08-18T06:02:59.729Z,20.36
2018-08-18T06:05:30.235Z,20.53
2018-08-18T06:07:59.665Z,20.55
2018-08-18T06:10:28.249Z,20.54
2018-08-18T06:12:57.030Z,20.65
2018-08-18T06:15:26.333Z,20.69
2018-08-18T06:17:54.845Z,20.72
2018-08-18T06:20:23.370Z,20.68
2018-08-18T06:22:51.826Z,20.69
2018-08-18T06:25:20.293Z,20.64
2018-08-18T06:27:48.695Z,20.83
2018-08-18T06:30:17.169Z,21.03
2018-08-18T06:32:45.681Z,21.23
2018-08-18T06:35:14.082Z,21.20
2018-08-18T06:37:46.717Z,21.31
2018-08-18T06:40:15.160Z,21.18
2018-08-18T06:42:45.018Z,21.26
2018-08-18T06:45:16.725Z,21.15
2018-08-18T06:47:45.501Z,21.10
2018-08-18T06:50:15.189Z,20.98
2018-08-18T06:52:44.417Z,20.98
2018-08-18T06:55:20.146Z,21.03
2018-08-18T06:57:51.853Z,21.08
2018-08-18T07:00:22.170Z,21.23
2018-08-18T07:02:50.699Z,21.62
2018-08-18T07:05:19.996Z,21.90
2018-08-18T07:07:49.200Z,22.39
2018-08-18T07:10:29.790Z,22.74
2018-08-18T07:13:02.414Z,23.00
2018-08-18T07:15:33.287Z,23.21
2018-08-18T07:18:01.775Z,23.27
2018-08-18T07:20:30.427Z,23.38
2018-08-18T07:22:58.901Z,23.46
2018-08-18T07:25:27.418Z,23.38
2018-08-18T07:28:01.218Z,23.33
2018-08-18T07:30:30.549Z,23.30
2018-08-18T07:32:59.438Z,23.47
2018-08-18T07:35:28.106Z,23.57
2018-08-18T07:37:56.609Z,23.51
2018-08-18T07:41:00.229Z,23.78
2018-08-18T07:43:30.352Z,23.61
2018-08-18T07:46:00.325Z,23.62
2018-08-18T07:48:28.773Z,23.52
2018-08-18T07:50:57.265Z,23.88
2018-08-18T07:53:26.139Z,24.13
2018-08-18T07:55:54.581Z,24.29
2018-08-18T07:58:24.484Z,24.37
2018-08-18T08:00:53.130Z,24.30
2018-08-18T08:03:21.879Z,24.23
2018-08-18T08:05:50.400Z,24.58
2018-08-18T08:08:18.877Z,24.68
2018-08-18T08:10:47.337Z,24.47
2018-08-18T08:13:16.142Z,24.27
2018-08-18T08:15:44.612Z,24.58
2018-08-18T08:18:14.856Z,24.66
2018-08-18T08:20:43.377Z,24.95
2018-08-18T08:23:11.943Z,25.14
2018-08-18T08:25:40.453Z,25.76
2018-08-18T08:28:09.014Z,26.06
2018-08-18T08:30:37.595Z,25.91
2018-08-18T08:33:06.141Z,25.71
2018-08-18T08:35:37.794Z,25.26
2018-08-18T08:38:06.437Z,24.95
2018-08-18T08:40:35.274Z,24.53
2018-08-18T08:43:03.813Z,24.39
2018-08-18T08:45:32.580Z,24.33
2018-08-18T08:48:01.054Z,24.18
2018-08-18T08:50:29.539Z,24.15
2018-08-18T08:52:58.240Z,23.98
2018-08-18T08:55:28.186Z,23.96
2018-08-18T08:57:56.709Z,24.23
2018-08-18T09:00:25.442Z,24.42
2018-08-18T09:02:53.969Z,24.28
2018-08-18T09:05:22.488Z,24.69
2018-08-18T09:07:50.925Z,24.73
2018-08-18T09:10:19.458Z,24.76
2018-08-18T09:12:47.976Z,24.99
2018-08-18T09:15:17.445Z,24.99
2018-08-18T09:17:46.581Z,25.22
2018-08-18T09:20:19.293Z,25.46
2018-08-18T09:23:00.053Z,25.92
2018-08-18T09:25:30.234Z,26.37
2018-08-18T09:28:00.262Z,26.12
2018-08-18T09:30:30.071Z,26.46
2018-08-18T09:33:00.953Z,26.39
2018-08-18T09:35:29.507Z,26.91
2018-08-18T09:38:00.192Z,26.99
2018-08-18T09:40:30.038Z,27.02
2018-08-18T09:42:58.547Z,27.12
2018-08-18T09:45:27.314Z,27.00
2018-08-18T09:47:55.771Z,26.98
2018-08-18T09:50:24.635Z,27.04
2018-08-18T09:52:53.169Z,27.70
2018-08-18T09:55:21.690Z,28.13
2018-08-18T09:57:50.148Z,28.58
2018-08-18T10:00:19.161Z,28.70
2018-08-18T10:02:47.614Z,28.94
2018-08-18T10:05:16.130Z,29.47
2018-08-18T10:07:44.685Z,29.56
2018-08-18T10:10:14.115Z,29.23
2018-08-18T10:12:42.622Z,28.93
2018-08-18T10:15:11.105Z,29.10
2018-08-18T10:17:39.647Z,29.58
2018-08-18T10:20:08.313Z,30.05
2018-08-18T10:22:36.881Z,30.35
2018-08-18T10:25:06.355Z,31.18
2018-08-18T10:27:35.337Z,31.21
2018-08-18T10:30:03.850Z,31.25
2018-08-18T10:32:32.994Z,31.35
2018-08-18T10:35:01.426Z,31.65
2018-08-18T10:37:30.003Z,32.02
2018-08-18T10:40:08.554Z,32.24
2018-08-18T10:42:37.033Z,32.74
2018-08-18T10:45:07.039Z,32.63
2018-08-18T10:47:35.641Z,32.36
2018-08-18T10:51:18.829Z,32.54
2018-08-18T10:53:47.230Z,31.17
2018-08-18T10:56:15.715Z,30.07
2018-08-18T10:58:58.867Z,30.31
2018-08-18T11:01:27.345Z,29.74
2018-08-18T11:03:55.871Z,30.44
2018-08-18T11:06:29.253Z,32.18
2018-08-18T11:08:57.762Z,32.73
2018-08-18T11:11:26.330Z,34.15
2018-08-18T11:13:54.773Z,35.16
2018-08-18T11:16:23.295Z,33.81
2018-08-18T11:18:51.721Z,32.07
2018-08-18T11:21:24.691Z,32.09
2018-08-18T11:23:57.327Z,32.46
2018-08-18T11:26:34.167Z,32.84
2018-08-18T11:29:19.232Z,33.61
2018-08-18T11:31:47.713Z,32.53
2018-08-18T11:34:19.483Z,33.43
2018-08-18T11:37:02.371Z,34.23
2018-08-18T11:39:31.955Z,35.13
2018-08-18T11:42:00.678Z,36.55
2018-08-18T11:44:30.277Z,36.48
2018-08-18T11:46:58.806Z,37.34
2018-08-18T11:49:27.433Z,37.48
2018-08-18T11:51:55.977Z,37.86
2018-08-18T11:54:24.854Z,37.88
2018-08-18T11:56:53.693Z,37.66
2018-08-18T11:59:22.160Z,35.94
2018-08-18T12:01:53.288Z,34.42
2018-08-18T12:04:22.753Z,33.13
2018-08-18T12:06:56.721Z,32.35
2018-08-18T12:09:25.583Z,33.57
2018-08-18T12:11:54.085Z,34.18
2018-08-18T12:14:22.833Z,33.21
2018-08-18T12:16:51.585Z,32.45
2018-08-18T12:19:20.025Z,33.01
2018-08-18T12:21:48.474Z,34.85
2018-08-18T12:24:18.481Z,37.07
2018-08-18T12:26:58.337Z,37.34
2018-08-18T12:29:27.943Z,37.41
2018-08-18T12:31:56.373Z,36.23
2018-08-18T12:34:25.024Z,34.79
2018-08-18T12:36:53.834Z,33.87
2018-08-18T12:39:22.185Z,33.90
2018-08-18T12:41:50.669Z,34.41
2018-08-18T12:44:23.626Z,35.13
2018-08-18T12:46:52.254Z,37.52
2018-08-18T12:49:20.781Z,37.95
2018-08-18T12:51:49.281Z,38.35
2018-08-18T12:54:17.847Z,37.76
2018-08-18T12:56:46.328Z,39.18
2018-08-18T12:59:14.824Z,40.16
2018-08-18T13:01:44.875Z,41.39
2018-08-18T13:04:15.657Z,40.25
2018-08-18T13:06:45.382Z,37.30
2018-08-18T13:09:15.934Z,35.21
2018-08-18T13:11:46.063Z,34.95
2018-08-18T13:14:17.932Z,35.27
2018-08-18T13:16:46.442Z,34.80
2018-08-18T13:19:16.542Z,34.35
2018-08-18T13:21:45.090Z,33.66
2018-08-18T13:24:13.669Z,33.71
2018-08-18T13:26:42.147Z,34.53
2018-08-18T13:29:11.569Z,38.23
2018-08-18T13:31:41.322Z,39.98
2018-08-18T13:34:11.903Z,40.81
2018-08-18T13:36:41.526Z,40.45
2018-08-18T13:39:12.770Z,41.47
2018-08-18T13:41:41.758Z,40.95
2018-08-18T13:44:10.307Z,41.68
2018-08-18T13:46:51.427Z,40.46
2018-08-18T13:49:21.939Z,41.55
2018-08-18T13:51:50.684Z,41.95
2018-08-18T13:54:19.311Z,40.80
2018-08-18T13:56:48.007Z,41.35
2018-08-18T13:59:40.585Z,42.12
2018-08-18T14:02:09.774Z,41.34
2018-08-18T14:04:41.160Z,43.02
2018-08-18T14:07:10.353Z,42.92
2018-08-18T14:09:41.566Z,41.99
2018-08-18T14:12:16.747Z,42.83
2018-08-18T14:14:46.210Z,43.55
2018-08-18T14:17:15.361Z,42.60
2018-08-18T14:19:43.954Z,40.12
2018-08-18T14:22:12.498Z,41.18
2018-08-18T14:24:41.894Z,41.58
2018-08-18T14:27:17.543Z,42.59
2018-08-18T14:29:45.992Z,42.12
2018-08-18T14:32:19.454Z,40.93
2018-08-18T14:34:55.198Z,42.28
2018-08-18T14:37:24.036Z,42.08
2018-08-18T14:39:52.610Z,40.51
2018-08-18T14:42:21.289Z,39.88
2018-08-18T14:44:49.912Z,40.60
2018-08-18T14:47:18.529Z,42.19
2018-08-18T14:49:47.046Z,41.15
2018-08-18T14:52:15.793Z,40.91
2018-08-18T14:54:44.305Z,42.05
2018-08-18T14:57:12.905Z,42.99
2018-08-18T14:59:41.466Z,42.49
2018-08-18T15:02:15.675Z,42.22
2018-08-18T15:04:44.285Z,42.82
2018-08-18T15:07:12.810Z,43.16
2018-08-18T15:09:44.850Z,42.87
2018-08-18T15:12:13.718Z,43.33
2018-08-18T15:14:42.244Z,41.98
2018-08-18T15:17:10.805Z,41.42
2018-08-18T15:19:39.358Z,41.29
2018-08-18T15:22:12.933Z,40.82
2018-08-18T15:24:41.426Z,41.69
2018-08-18T15:27:09.874Z,42.16
2018-08-18T15:29:38.590Z,41.74
2018-08-18T15:32:07.562Z,41.50
2018-08-18T15:34:36.059Z,40.39
2018-08-18T15:37:04.849Z,41.64
2018-08-18T15:39:33.460Z,41.94
2018-08-18T15:42:01.990Z,42.05
2018-08-18T15:44:30.485Z,41.42
2018-08-18T15:46:59.432Z,40.14
2018-08-18T15:49:27.893Z,39.39
2018-08-18T15:51:56.685Z,39.80
2018-08-18T15:54:26.747Z,40.49
2018-08-18T15:56:55.229Z,40.83
2018-08-18T15:59:23.766Z,41.11
2018-08-18T16:01:52.396Z,40.76
2018-08-18T16:04:20.873Z,40.02
2018-08-18T16:06:49.530Z,40.02
2018-08-18T16:09:18.200Z,40.65
2018-08-18T16:11:47.291Z,41.07
2018-08-18T16:14:15.705Z,41.20
2018-08-18T16:16:56.450Z,37.94
2018-08-18T16:19:26.546Z,38.36
2018-08-18T16:21:55.124Z,38.62
2018-08-18T16:24:35.306Z,38.64
2018-08-18T16:27:06.874Z,36.40
2018-08-18T16:29:35.982Z,35.46
2018-08-18T16:32:28.126Z,36.33
2018-08-18T16:35:02.228Z,35.29
2018-08-18T16:37:31.204Z,32.98
2018-08-18T16:39:59.759Z,32.05
2018-08-18T16:42:28.300Z,31.10
2018-08-18T16:44:56.973Z,30.45
2018-08-18T16:47:26.206Z,30.08
2018-08-18T16:49:54.790Z,29.71
2018-08-18T16:52:23.413Z,29.35
2018-08-18T16:54:52.146Z,29.10
2018-08-18T16:57:20.610Z,29.26
2018-08-18T16:59:49.357Z,29.12
2018-08-18T17:02:30.121Z,28.93
2018-08-18T17:04:59.033Z,28.77
2018-08-18T17:07:28.237Z,28.70
2018-08-18T17:09:56.766Z,28.42
2018-08-18T17:12:29.439Z,28.27
2018-08-18T17:14:58.130Z,28.05
2018-08-18T17:17:27.337Z,27.82
2018-08-18T17:19:55.820Z,27.88
2018-08-18T17:22:24.437Z,27.83
2018-08-18T17:24:53.033Z,27.75
2018-08-18T17:27:21.433Z,27.61
2018-08-18T17:29:51.657Z,27.64
2018-08-18T17:32:20.113Z,27.56
2018-08-18T17:34:48.687Z,27.55
2018-08-18T17:37:17.090Z,27.53
2018-08-18T17:39:45.690Z,27.54
2018-08-18T17:42:14.190Z,27.55
2018-08-18T17:44:42.866Z,27.54
2018-08-18T17:47:12.034Z,27.38
2018-08-18T17:49:57.859Z,27.35
2018-08-18T17:52:27.886Z,27.29
2018-08-18T17:55:08.941Z,27.30
2018-08-18T17:57:38.514Z,27.25
2018-08-18T18:00:19.893Z,27.15
2018-08-18T18:02:54.045Z,27.08
2018-08-18T18:05:23.778Z,27.11
2018-08-18T18:07:53.942Z,27.01
2018-08-18T18:10:24.521Z,26.94
2018-08-18T18:12:53.029Z,26.79
2018-08-18T18:15:32.522Z,26.68
2018-08-18T18:18:01.121Z,26.58
2018-08-18T18:20:31.198Z,26.45
2018-08-18T18:22:59.625Z,26.36
2018-08-18T18:25:28.264Z,26.23
2018-08-18T18:27:56.940Z,26.11
2018-08-18T18:30:28.061Z,26.01
2018-08-18T18:32:57.096Z,25.94
2018-08-18T18:35:26.274Z,25.80
2018-08-18T18:37:58.921Z,25.72
2018-08-18T18:40:27.621Z,25.69
2018-08-18T18:42:56.442Z,25.62
2018-08-18T18:45:26.237Z,25.58
2018-08-18T18:47:54.868Z,25.52
2018-08-18T18:50:23.414Z,25.46
2018-08-18T18:52:51.953Z,25.39
2018-08-18T18:55:20.511Z,25.28
2018-08-18T18:58:02.905Z,25.19
2018-08-18T19:00:33.262Z,25.08
2018-08-18T19:03:01.844Z,24.95
2018-08-18T19:05:31.476Z,24.92
2018-08-18T19:08:07.037Z,24.85
2018-08-18T19:10:35.890Z,24.75
2018-08-18T19:13:04.459Z,24.71
2018-08-18T19:15:33.189Z,24.69
2018-08-18T19:18:01.734Z,24.70
2018-08-18T19:20:30.929Z,24.71
2018-08-18T19:23:07.710Z,24.78
2018-08-18T19:25:37.316Z,24.74
2018-08-18T19:28:05.918Z,24.70
2018-08-18T19:30:34.874Z,24.63
2018-08-18T19:33:03.482Z,24.56
2018-08-18T19:35:48.666Z,24.45
2018-08-18T19:38:17.850Z,24.38
2018-08-18T19:40:47.613Z,24.36
2018-08-18T19:43:18.621Z,24.41
2018-08-18T19:45:47.670Z,24.41
2018-08-18T19:48:18.003Z,24.41
2018-08-18T19:50:55.421Z,24.42
2018-08-18T19:53:29.709Z,24.46
2018-08-18T19:55:59.341Z,24.43
2018-08-18T19:58:28.522Z,24.41
2018-08-18T20:00:57.178Z,24.37
2018-08-18T20:03:26.106Z,24.27
2018-08-18T20:05:54.999Z,24.21
2018-08-18T20:08:25.743Z,24.08
2018-08-18T20:11:00.881Z,24.00
2018-08-18T20:13:31.834Z,23.96
2018-08-18T20:16:01.743Z,23.97
2018-08-18T20:18:30.917Z,23.94
2018-08-18T20:20:59.955Z,23.93
2018-08-18T20:23:28.691Z,23.89
2018-08-18T20:25:57.114Z,23.84
2018-08-18T20:28:26.309Z,23.79
2018-08-18T20:30:54.779Z,23.66
2018-08-18T20:33:23.303Z,23.56
2018-08-18T20:35:51.801Z,23.46
2018-08-18T20:38:20.250Z,23.36
2018-08-18T20:40:48.669Z,23.29
2018-08-18T20:43:17.099Z,23.28
2018-08-18T20:45:48.734Z,23.34
2018-08-18T20:48:18.725Z,23.34
2018-08-18T20:50:47.420Z,23.32
2018-08-18T20:53:16.813Z,23.32
2018-08-18T20:55:51.201Z,23.33
2018-08-18T20:58:19.678Z,23.38
2018-08-18T21:00:48.050Z,23.36
2018-08-18T21:03:16.894Z,23.33
2018-08-18T21:05:45.293Z,23.31
2018-08-18T21:08:18.593Z,23.28
2018-08-18T21:10:47.710Z,23.22
2018-08-18T21:13:16.230Z,23.24
2018-08-18T21:15:44.924Z,23.24
2018-08-18T21:18:17.603Z,23.23
2018-08-18T21:20:46.540Z,23.18
2018-08-18T21:23:15.417Z,23.11
2018-08-18T21:25:50.100Z,23.07
2018-08-18T21:28:19.721Z,23.02
2018-08-18T21:30:48.744Z,23.02
2018-08-18T21:33:17.297Z,22.98
2018-08-18T21:35:45.793Z,22.96
2018-08-18T21:38:14.454Z,22.93
2018-08-18T21:40:43.160Z,22.88
2018-08-18T21:43:23.154Z,22.84
2018-08-18T21:45:53.573Z,22.81
2018-08-18T21:48:55.038Z,22.81
2018-08-18T21:51:26.312Z,22.84
2018-08-18T21:53:54.927Z,22.91
2018-08-18T21:56:23.329Z,22.94
2018-08-18T21:58:51.886Z,22.97
2018-08-18T22:01:22.561Z,22.98
2018-08-18T22:03:52.118Z,23.03
2018-08-18T22:06:20.653Z,23.13
2018-08-18T22:08:49.374Z,23.15
2018-08-18T22:11:20.021Z,23.18
2018-08-18T22:13:52.156Z,23.16
2018-08-18T22:16:21.215Z,23.15
2018-08-18T22:18:56.198Z,23.11
2018-08-18T22:21:27.625Z,23.02
2018-08-18T22:23:57.874Z,22.96
2018-08-18T22:26:26.875Z,22.81
2018-08-18T22:29:06.387Z,22.70
2018-08-18T22:31:35.343Z,22.56
2018-08-18T22:34:05.067Z,22.47
2018-08-18T22:36:35.885Z,22.36
2018-08-18T22:39:07.071Z,22.30
2018-08-18T22:41:35.617Z,22.22
2018-08-18T22:44:04.535Z,22.12
2018-08-18T22:46:33.077Z,22.06
2018-08-18T22:49:01.656Z,22.01
2018-08-18T22:51:30.307Z,22.04
2018-08-18T22:53:58.962Z,21.92
2018-08-18T22:56:32.838Z,21.82
2018-08-18T22:59:03.022Z,21.72
2018-08-18T23:01:32.461Z,21.60
2018-08-18T23:04:01.384Z,21.52
2018-08-18T23:06:33.402Z,21.41
2018-08-18T23:09:01.901Z,21.33
2018-08-18T23:11:30.330Z,21.30
2018-08-18T23:13:58.793Z,21.27
2018-08-18T23:16:27.509Z,21.25
2018-08-18T23:18:56.145Z,21.15
2018-08-18T23:21:28.784Z,21.03
2018-08-18T23:23:58.653Z,20.98
2018-08-18T23:26:27.757Z,20.88
2018-08-18T23:28:56.839Z,20.86
2018-08-18T23:31:25.930Z,20.86
2018-08-18T23:33:55.248Z,20.81
2018-08-18T23:36:24.574Z,20.72
2018-08-18T23:38:58.298Z,20.70
2018-08-18T23:41:26.965Z,20.63
2018-08-18T23:43:55.401Z,20.57
2018-08-18T23:46:23.948Z,20.49
2018-08-18T23:48:52.869Z,20.46
2018-08-18T23:51:26.961Z,20.40
2018-08-18T23:53:55.393Z,20.34
2018-08-18T23:56:27.288Z,20.28
2018-08-18T23:58:56.021Z,20.21
